sensor_id;sensor_type;location;lat;lon;timestamp;P1;durP1;ratioP1;P2;durP2;ratioP2
69795;SDS011;57073;45.650;9.612;2023-01-04T00:01:52;39.15;;;17.48;;
69795;SDS011;57073;45.650;9.612;2023-01-04T00:11:53;37.63;;;16.97;;
69795;SDS011;57073;45.650;9.612;2023-01-04T00:21:54;37.78;;;18.60;;
69795;SDS011;57073;45.650;9.612;2023-01-04T00:31:54;38.63;;;19.27;;
69795;SDS011;57073;45.650;9.612;2023-01-04T00:41:54;39.70;;;19.70;;
69795;SDS011;57073;45.650;9.612;2023-01-04T00:52:04;39.40;;;21.48;;
69795;SDS011;57073;45.650;9.612;2023-01-04T01:02:04;37.60;;;20.53;;
69795;SDS011;57073;45.650;9.612;2023-01-04T01:12:04;34.95;;;19.45;;
69795;SDS011;57073;45.650;9.612;2023-01-04T01:22:05;37.05;;;19.17;;
69795;SDS011;57073;45.650;9.612;2023-01-04T01:32:05;34.07;;;18.70;;
69795;SDS011;57073;45.650;9.612;2023-01-04T01:42:07;35.55;;;19.17;;
69795;SDS011;57073;45.650;9.612;2023-01-04T01:52:17;36.93;;;20.20;;
69795;SDS011;57073;45.650;9.612;2023-01-04T02:02:23;42.92;;;21.35;;
69795;SDS011;57073;45.650;9.612;2023-01-04T02:12:23;41.77;;;20.70;;
69795;SDS011;57073;45.650;9.612;2023-01-04T02:32:56;43.17;;;21.07;;
69795;SDS011;57073;45.650;9.612;2023-01-04T02:43:23;46.80;;;21.50;;
69795;SDS011;57073;45.650;9.612;2023-01-04T02:53:51;43.47;;;20.48;;
69795;SDS011;57073;45.650;9.612;2023-01-04T03:14:35;39.10;;;20.73;;
69795;SDS011;57073;45.650;9.612;2023-01-04T03:24:41;43.93;;;21.40;;
69795;SDS011;57073;45.650;9.612;2023-01-04T03:35:00;41.95;;;21.98;;
69795;SDS011;57073;45.650;9.612;2023-01-04T03:45:24;42.77;;;21.13;;
69795;SDS011;57073;45.650;9.612;2023-01-04T03:55:46;40.67;;;20.33;;
69795;SDS011;57073;45.650;9.612;2023-01-04T04:05:48;50.42;;;22.75;;
69795;SDS011;57073;45.650;9.612;2023-01-04T04:16:07;53.07;;;22.47;;
69795;SDS011;57073;45.650;9.612;2023-01-04T04:26:08;48.33;;;22.15;;
69795;SDS011;57073;45.650;9.612;2023-01-04T04:36:09;51.47;;;22.00;;
69795;SDS011;57073;45.650;9.612;2023-01-04T04:46:10;52.80;;;22.90;;
69795;SDS011;57073;45.650;9.612;2023-01-04T04:56:11;57.90;;;21.83;;
69795;SDS011;57073;45.650;9.612;2023-01-04T05:06:11;50.65;;;22.95;;
69795;SDS011;57073;45.650;9.612;2023-01-04T05:16:12;48.43;;;21.37;;
69795;SDS011;57073;45.650;9.612;2023-01-04T05:26:12;46.30;;;22.00;;
69795;SDS011;57073;45.650;9.612;2023-01-04T05:36:12;47.00;;;21.30;;
69795;SDS011;57073;45.650;9.612;2023-01-04T05:46:13;46.88;;;22.20;;
69795;SDS011;57073;45.650;9.612;2023-01-04T05:56:13;52.40;;;23.17;;
69795;SDS011;57073;45.650;9.612;2023-01-04T06:06:13;48.07;;;21.43;;
69795;SDS011;57073;45.650;9.612;2023-01-04T06:16:14;43.58;;;18.50;;
69795;SDS011;57073;45.650;9.612;2023-01-04T06:26:14;38.58;;;17.33;;
69795;SDS011;57073;45.650;9.612;2023-01-04T06:36:14;37.63;;;17.27;;
69795;SDS011;57073;45.650;9.612;2023-01-04T06:46:15;41.00;;;18.08;;
69795;SDS011;57073;45.650;9.612;2023-01-04T06:56:15;38.45;;;18.00;;
69795;SDS011;57073;45.650;9.612;2023-01-04T07:06:15;46.95;;;18.52;;
69795;SDS011;57073;45.650;9.612;2023-01-04T07:16:16;51.55;;;20.65;;
69795;SDS011;57073;45.650;9.612;2023-01-04T07:26:16;40.67;;;18.90;;
69795;SDS011;57073;45.650;9.612;2023-01-04T07:36:17;39.15;;;16.95;;
69795;SDS011;57073;45.650;9.612;2023-01-04T07:46:17;41.42;;;18.50;;
69795;SDS011;57073;45.650;9.612;2023-01-04T07:56:17;35.40;;;17.30;;
69795;SDS011;57073;45.650;9.612;2023-01-04T08:06:18;33.20;;;16.40;;
69795;SDS011;57073;45.650;9.612;2023-01-04T08:26:22;31.53;;;16.67;;
69795;SDS011;57073;45.650;9.612;2023-01-04T08:36:24;29.13;;;15.43;;
69795;SDS011;57073;45.650;9.612;2023-01-04T08:46:25;30.00;;;15.40;;
69795;SDS011;57073;45.650;9.612;2023-01-04T08:56:26;29.02;;;15.77;;
69795;SDS011;57073;45.650;9.612;2023-01-04T09:06:27;30.30;;;16.77;;
69795;SDS011;57073;45.650;9.612;2023-01-04T09:16:27;31.58;;;17.38;;
69795;SDS011;57073;45.650;9.612;2023-01-04T09:26:27;33.67;;;17.47;;
69795;SDS011;57073;45.650;9.612;2023-01-04T09:36:28;34.85;;;19.05;;
69795;SDS011;57073;45.650;9.612;2023-01-04T09:46:33;30.85;;;17.05;;
69795;SDS011;57073;45.650;9.612;2023-01-04T09:56:56;30.53;;;16.00;;
69795;SDS011;57073;45.650;9.612;2023-01-04T10:06:58;29.13;;;15.73;;
69795;SDS011;57073;45.650;9.612;2023-01-04T10:27:19;29.23;;;15.33;;
69795;SDS011;57073;45.650;9.612;2023-01-04T10:37:37;30.20;;;15.10;;
69795;SDS011;57073;45.650;9.612;2023-01-04T10:58:09;25.97;;;12.87;;
69795;SDS011;57073;45.650;9.612;2023-01-04T11:08:25;29.87;;;14.00;;
69795;SDS011;57073;45.650;9.612;2023-01-04T11:18:53;23.45;;;13.02;;
69795;SDS011;57073;45.650;9.612;2023-01-04T11:28:55;24.87;;;13.27;;
69795;SDS011;57073;45.650;9.612;2023-01-04T11:38:56;21.07;;;11.90;;
69795;SDS011;57073;45.650;9.612;2023-01-04T11:48:57;19.43;;;11.37;;
69795;SDS011;57073;45.650;9.612;2023-01-04T11:59:02;19.60;;;10.95;;
69795;SDS011;57073;45.650;9.612;2023-01-04T12:09:13;19.53;;;10.43;;
69795;SDS011;57073;45.650;9.612;2023-01-04T12:19:15;20.45;;;10.25;;
69795;SDS011;57073;45.650;9.612;2023-01-04T13:00:07;17.87;;;11.07;;
69795;SDS011;57073;45.650;9.612;2023-01-04T13:10:04;20.80;;;10.77;;
69795;SDS011;57073;45.650;9.612;2023-01-04T13:20:21;22.73;;;12.10;;
69795;SDS011;57073;45.650;9.612;2023-01-04T13:30:31;22.80;;;13.73;;
69795;SDS011;57073;45.650;9.612;2023-01-04T13:40:33;21.70;;;12.90;;
69795;SDS011;57073;45.650;9.612;2023-01-04T13:50:43;21.85;;;12.70;;
69795;SDS011;57073;45.650;9.612;2023-01-04T14:00:49;22.87;;;13.00;;
69795;SDS011;57073;45.650;9.612;2023-01-04T14:10:55;21.67;;;12.30;;
69795;SDS011;57073;45.650;9.612;2023-01-04T14:20:56;22.02;;;12.45;;
69795;SDS011;57073;45.650;9.612;2023-01-04T14:41:10;21.80;;;12.60;;
69795;SDS011;57073;45.650;9.612;2023-01-04T14:51:15;23.57;;;13.27;;
69795;SDS011;57073;45.650;9.612;2023-01-04T15:01:20;24.13;;;13.47;;
69795;SDS011;57073;45.650;9.612;2023-01-04T15:11:20;26.77;;;13.93;;
69795;SDS011;57073;45.650;9.612;2023-01-04T15:21:21;26.67;;;14.13;;
69795;SDS011;57073;45.650;9.612;2023-01-04T15:31:21;28.55;;;14.25;;
69795;SDS011;57073;45.650;9.612;2023-01-04T15:41:21;26.27;;;14.40;;
69795;SDS011;57073;45.650;9.612;2023-01-04T15:51:40;26.88;;;15.35;;
69795;SDS011;57073;45.650;9.612;2023-01-04T16:01:41;27.67;;;15.13;;
69795;SDS011;57073;45.650;9.612;2023-01-04T16:11:42;31.10;;;16.50;;
69795;SDS011;57073;45.650;9.612;2023-01-04T16:22:01;36.03;;;17.50;;
69795;SDS011;57073;45.650;9.612;2023-01-04T16:32:02;34.35;;;17.15;;
69795;SDS011;57073;45.650;9.612;2023-01-04T16:42:03;35.03;;;17.67;;
69795;SDS011;57073;45.650;9.612;2023-01-04T16:52:04;35.72;;;16.88;;
69795;SDS011;57073;45.650;9.612;2023-01-04T17:02:09;32.93;;;16.93;;
69795;SDS011;57073;45.650;9.612;2023-01-04T17:12:11;35.05;;;17.98;;
69795;SDS011;57073;45.650;9.612;2023-01-04T17:22:11;34.13;;;16.73;;
69795;SDS011;57073;45.650;9.612;2023-01-04T17:32:11;34.60;;;17.80;;
69795;SDS011;57073;45.650;9.612;2023-01-04T17:42:12;38.22;;;19.13;;
69795;SDS011;57073;45.650;9.612;2023-01-04T17:52:12;38.57;;;17.03;;
69795;SDS011;57073;45.650;9.612;2023-01-04T18:02:13;36.83;;;18.65;;
69795;SDS011;57073;45.650;9.612;2023-01-04T18:12:13;35.43;;;17.23;;
69795;SDS011;57073;45.650;9.612;2023-01-04T18:22:14;36.20;;;18.33;;
69795;SDS011;57073;45.650;9.612;2023-01-04T18:32:14;35.20;;;17.90;;
69795;SDS011;57073;45.650;9.612;2023-01-04T18:42:15;30.83;;;16.17;;
69795;SDS011;57073;45.650;9.612;2023-01-04T18:52:16;31.80;;;16.77;;
69795;SDS011;57073;45.650;9.612;2023-01-04T19:02:18;32.85;;;16.10;;
69795;SDS011;57073;45.650;9.612;2023-01-04T19:12:19;34.03;;;18.03;;
69795;SDS011;57073;45.650;9.612;2023-01-04T19:22:19;34.40;;;17.98;;
69795;SDS011;57073;45.650;9.612;2023-01-04T19:32:20;34.67;;;18.57;;
69795;SDS011;57073;45.650;9.612;2023-01-04T19:42:20;35.72;;;17.67;;
69795;SDS011;57073;45.650;9.612;2023-01-04T19:52:20;30.05;;;16.52;;
69795;SDS011;57073;45.650;9.612;2023-01-04T20:02:21;33.55;;;16.95;;
69795;SDS011;57073;45.650;9.612;2023-01-04T20:12:21;30.67;;;17.93;;
69795;SDS011;57073;45.650;9.612;2023-01-04T20:22:21;33.53;;;17.63;;
69795;SDS011;57073;45.650;9.612;2023-01-04T20:32:22;34.58;;;17.10;;
69795;SDS011;57073;45.650;9.612;2023-01-04T20:42:23;32.73;;;17.90;;
69795;SDS011;57073;45.650;9.612;2023-01-04T20:52:42;34.87;;;17.73;;
69795;SDS011;57073;45.650;9.612;2023-01-04T21:02:42;34.67;;;17.15;;
69795;SDS011;57073;45.650;9.612;2023-01-04T21:12:42;30.98;;;16.63;;
69795;SDS011;57073;45.650;9.612;2023-01-04T21:22:43;33.47;;;17.48;;
69795;SDS011;57073;45.650;9.612;2023-01-04T21:32:43;32.67;;;17.90;;
69795;SDS011;57073;45.650;9.612;2023-01-04T21:42:44;36.33;;;18.63;;
69795;SDS011;57073;45.650;9.612;2023-01-04T21:52:44;35.33;;;17.40;;
69795;SDS011;57073;45.650;9.612;2023-01-04T22:02:44;33.67;;;17.13;;
69795;SDS011;57073;45.650;9.612;2023-01-04T22:12:45;35.83;;;17.07;;
69795;SDS011;57073;45.650;9.612;2023-01-04T22:22:46;37.07;;;19.00;;
69795;SDS011;57073;45.650;9.612;2023-01-04T22:32:47;36.92;;;18.45;;
69795;SDS011;57073;45.650;9.612;2023-01-04T22:42:48;35.60;;;18.00;;
69795;SDS011;57073;45.650;9.612;2023-01-04T22:52:52;36.92;;;18.05;;
69795;SDS011;57073;45.650;9.612;2023-01-04T23:02:53;36.57;;;18.70;;
69795;SDS011;57073;45.650;9.612;2023-01-04T23:12:53;38.72;;;19.98;;
69795;SDS011;57073;45.650;9.612;2023-01-04T23:22:53;37.47;;;17.45;;
69795;SDS011;57073;45.650;9.612;2023-01-04T23:32:54;36.90;;;17.87;;
69795;SDS011;57073;45.650;9.612;2023-01-04T23:42:54;37.05;;;18.25;;
69795;SDS011;57073;45.650;9.612;2023-01-04T23:52:56;36.90;;;18.00;;
